sensor_id;sensor_type;location;lat;lon;timestamp;pressure;altitude;pressure_sealevel;temperature;humidity
59435;BME280;45241;49.768;8.636;2023-01-08T00:00:46;99520.16;;;13.03;73.07
59435;BME280;45241;49.768;8.636;2023-01-08T00:03:12;99520.19;;;13.21;72.36
59435;BME280;45241;49.768;8.636;2023-01-08T00:05:39;99521.81;;;13.04;72.79
59435;BME280;45241;49.768;8.636;2023-01-08T00:08:04;99518.97;;;13.17;72.70
59435;BME280;45241;49.768;8.636;2023-01-08T00:10:32;99511.25;;;12.84;74.04
59435;BME280;45241;49.768;8.636;2023-01-08T00:12:58;99512.19;;;12.96;73.26
59435;BME280;45241;49.768;8.636;2023-01-08T00:15:23;99499.63;;;12.90;73.59
59435;BME280;45241;49.768;8.636;2023-01-08T00:17:48;99493.34;;;12.96;73.31
59435;BME280;45241;49.768;8.636;2023-01-08T00:20:13;99495.06;;;13.09;73.21
59435;BME280;45241;49.768;8.636;2023-01-08T00:22:39;99490.88;;;12.95;73.36
59435;BME280;45241;49.768;8.636;2023-01-08T00:25:04;99488.47;;;13.05;72.99
59435;BME280;45241;49.768;8.636;2023-01-08T00:27:30;99481.88;;;13.19;72.75
59435;BME280;45241;49.768;8.636;2023-01-08T00:29:55;99478.63;;;12.99;73.31
59435;BME280;45241;49.768;8.636;2023-01-08T00:32:20;99475.19;;;12.91;73.62
59435;BME280;45241;49.768;8.636;2023-01-08T00:34:46;99465.31;;;13.04;73.75
59435;BME280;45241;49.768;8.636;2023-01-08T00:37:12;99462.16;;;13.07;74.00
59435;BME280;45241;49.768;8.636;2023-01-08T00:39:37;99467.41;;;12.83;74.54
59435;BME280;45241;49.768;8.636;2023-01-08T00:42:03;99466.94;;;13.05;74.29
59435;BME280;45241;49.768;8.636;2023-01-08T00:44:28;99464.25;;;12.86;76.00
59435;BME280;45241;49.768;8.636;2023-01-08T00:46:53;99458.66;;;13.06;75.07
59435;BME280;45241;49.768;8.636;2023-01-08T00:49:19;99452.28;;;13.19;74.73
59435;BME280;45241;49.768;8.636;2023-01-08T00:51:44;99456.47;;;13.15;74.71
59435;BME280;45241;49.768;8.636;2023-01-08T00:54:10;99447.13;;;13.17;74.77
59435;BME280;45241;49.768;8.636;2023-01-08T00:56:35;99441.69;;;12.87;75.19
59435;BME280;45241;49.768;8.636;2023-01-08T00:59:01;99442.00;;;12.98;75.73
59435;BME280;45241;49.768;8.636;2023-01-08T01:01:26;99439.75;;;13.13;75.48
59435;BME280;45241;49.768;8.636;2023-01-08T01:03:51;99437.06;;;13.13;75.56
59435;BME280;45241;49.768;8.636;2023-01-08T01:06:17;99432.50;;;13.13;75.71
59435;BME280;45241;49.768;8.636;2023-01-08T01:08:42;99428.50;;;13.16;75.20
59435;BME280;45241;49.768;8.636;2023-01-08T01:11:10;99427.16;;;13.25;75.19
59435;BME280;45241;49.768;8.636;2023-01-08T01:13:37;99424.00;;;13.28;75.21
59435;BME280;45241;49.768;8.636;2023-01-08T01:16:02;99422.25;;;13.04;75.59
59435;BME280;45241;49.768;8.636;2023-01-08T01:18:28;99427.47;;;13.17;74.94
59435;BME280;45241;49.768;8.636;2023-01-08T01:20:54;99450.78;;;13.23;73.93
59435;BME280;45241;49.768;8.636;2023-01-08T01:23:19;99447.22;;;13.11;75.10
59435;BME280;45241;49.768;8.636;2023-01-08T01:25:45;99445.44;;;13.05;77.85
59435;BME280;45241;49.768;8.636;2023-01-08T01:28:10;99444.69;;;12.98;78.50
59435;BME280;45241;49.768;8.636;2023-01-08T01:30:35;99444.00;;;12.66;81.71
59435;BME280;45241;49.768;8.636;2023-01-08T01:33:01;99442.66;;;12.75;81.38
59435;BME280;45241;49.768;8.636;2023-01-08T01:35:26;99443.31;;;12.52;82.19
59435;BME280;45241;49.768;8.636;2023-01-08T01:37:51;99444.59;;;12.49;82.26
59435;BME280;45241;49.768;8.636;2023-01-08T01:40:17;99455.16;;;12.69;82.49
59435;BME280;45241;49.768;8.636;2023-01-08T01:42:42;99458.72;;;12.63;83.57
59435;BME280;45241;49.768;8.636;2023-01-08T01:45:23;99470.63;;;12.30;87.13
59435;BME280;45241;49.768;8.636;2023-01-08T01:47:58;99467.13;;;12.30;85.51
59435;BME280;45241;49.768;8.636;2023-01-08T01:50:29;99460.63;;;12.38;88.26
59435;BME280;45241;49.768;8.636;2023-01-08T01:53:07;99461.22;;;12.21;89.62
59435;BME280;45241;49.768;8.636;2023-01-08T01:55:37;99450.16;;;12.29;89.05
59435;BME280;45241;49.768;8.636;2023-01-08T01:58:21;99453.03;;;12.10;88.83
59435;BME280;45241;49.768;8.636;2023-01-08T02:00:48;99440.44;;;12.10;89.79
59435;BME280;45241;49.768;8.636;2023-01-08T02:03:14;99448.00;;;12.20;90.36
59435;BME280;45241;49.768;8.636;2023-01-08T02:11:21;99443.44;;;11.95;91.82
59435;BME280;45241;49.768;8.636;2023-01-08T02:13:54;99434.78;;;12.18;90.43
59435;BME280;45241;49.768;8.636;2023-01-08T02:16:49;99428.72;;;12.05;92.47
59435;BME280;45241;49.768;8.636;2023-01-08T02:19:35;99419.88;;;11.97;93.09
59435;BME280;45241;49.768;8.636;2023-01-08T02:22:24;99419.59;;;12.06;89.69
59435;BME280;45241;49.768;8.636;2023-01-08T02:25:01;99418.13;;;12.10;89.24
59435;BME280;45241;49.768;8.636;2023-01-08T02:27:32;99410.53;;;12.25;88.22
59435;BME280;45241;49.768;8.636;2023-01-08T02:30:00;99411.41;;;12.19;89.01
59435;BME280;45241;49.768;8.636;2023-01-08T02:32:32;99412.38;;;12.24;87.19
59435;BME280;45241;49.768;8.636;2023-01-08T02:34:58;99425.56;;;12.08;89.10
59435;BME280;45241;49.768;8.636;2023-01-08T02:37:23;99428.53;;;11.99;87.92
59435;BME280;45241;49.768;8.636;2023-01-08T02:42:48;99399.78;;;12.25;86.79
59435;BME280;45241;49.768;8.636;2023-01-08T02:45:24;99401.19;;;12.09;86.05
59435;BME280;45241;49.768;8.636;2023-01-08T02:47:54;99404.56;;;12.23;86.74
59435;BME280;45241;49.768;8.636;2023-01-08T02:50:27;99403.91;;;12.02;86.13
59435;BME280;45241;49.768;8.636;2023-01-08T02:53:03;99395.53;;;12.17;86.22
59435;BME280;45241;49.768;8.636;2023-01-08T02:55:32;99392.63;;;12.19;87.39
59435;BME280;45241;49.768;8.636;2023-01-08T02:57:59;99395.19;;;12.07;89.45
59435;BME280;45241;49.768;8.636;2023-01-08T03:00:26;99401.19;;;12.27;89.12
59435;BME280;45241;49.768;8.636;2023-01-08T03:03:02;99399.19;;;12.23;89.82
59435;BME280;45241;49.768;8.636;2023-01-08T03:05:29;99390.84;;;12.31;89.16
59435;BME280;45241;49.768;8.636;2023-01-08T03:07:55;99393.84;;;12.16;91.61
59435;BME280;45241;49.768;8.636;2023-01-08T03:10:23;99386.09;;;12.26;91.29
59435;BME280;45241;49.768;8.636;2023-01-08T03:12:52;99379.09;;;12.07;92.18
59435;BME280;45241;49.768;8.636;2023-01-08T03:15:24;99369.75;;;11.91;94.42
59435;BME280;45241;49.768;8.636;2023-01-08T03:17:54;99373.41;;;11.97;95.20
59435;BME280;45241;49.768;8.636;2023-01-08T03:20:22;99364.41;;;11.85;96.36
59435;BME280;45241;49.768;8.636;2023-01-08T03:22:51;99364.16;;;11.93;95.45
59435;BME280;45241;49.768;8.636;2023-01-08T03:25:20;99369.50;;;11.93;96.49
59435;BME280;45241;49.768;8.636;2023-01-08T03:27:51;99362.44;;;11.73;97.60
59435;BME280;45241;49.768;8.636;2023-01-08T03:30:19;99356.63;;;11.77;98.84
59435;BME280;45241;49.768;8.636;2023-01-08T03:32:46;99358.44;;;11.83;97.49
59435;BME280;45241;49.768;8.636;2023-01-08T03:35:17;99346.78;;;11.70;97.85
59435;BME280;45241;49.768;8.636;2023-01-08T03:37:50;99343.97;;;11.84;97.68
59435;BME280;45241;49.768;8.636;2023-01-08T03:40:28;99334.28;;;11.58;98.01
59435;BME280;45241;49.768;8.636;2023-01-08T03:42:55;99326.16;;;11.89;96.51
59435;BME280;45241;49.768;8.636;2023-01-08T03:45:22;99321.91;;;11.82;97.15
59435;BME280;45241;49.768;8.636;2023-01-08T03:47:50;99324.72;;;11.87;98.39
59435;BME280;45241;49.768;8.636;2023-01-08T03:50:20;99330.69;;;11.89;96.72
59435;BME280;45241;49.768;8.636;2023-01-08T03:52:46;99320.34;;;11.92;97.82
59435;BME280;45241;49.768;8.636;2023-01-08T03:55:12;99321.16;;;12.11;96.34
59435;BME280;45241;49.768;8.636;2023-01-08T03:57:37;99324.16;;;12.03;97.16
59435;BME280;45241;49.768;8.636;2023-01-08T04:00:03;99326.16;;;11.89;97.59
59435;BME280;45241;49.768;8.636;2023-01-08T04:02:28;99323.91;;;11.86;97.17
59435;BME280;45241;49.768;8.636;2023-01-08T04:04:54;99320.00;;;12.07;96.66
59435;BME280;45241;49.768;8.636;2023-01-08T04:07:19;99306.84;;;11.81;97.16
59435;BME280;45241;49.768;8.636;2023-01-08T04:09:45;99306.38;;;11.65;99.89
59435;BME280;45241;49.768;8.636;2023-01-08T04:12:11;99306.66;;;11.76;97.27
59435;BME280;45241;49.768;8.636;2023-01-08T04:14:36;99300.69;;;11.73;98.62
59435;BME280;45241;49.768;8.636;2023-01-08T04:17:01;99299.75;;;11.86;96.16
59435;BME280;45241;49.768;8.636;2023-01-08T04:19:27;99294.91;;;11.95;95.35
59435;BME280;45241;49.768;8.636;2023-01-08T04:21:52;99293.19;;;11.82;95.33
59435;BME280;45241;49.768;8.636;2023-01-08T04:24:18;99295.97;;;11.94;94.86
59435;BME280;45241;49.768;8.636;2023-01-08T04:26:44;99297.19;;;11.73;95.30
59435;BME280;45241;49.768;8.636;2023-01-08T04:29:11;99289.34;;;11.71;95.76
59435;BME280;45241;49.768;8.636;2023-01-08T04:31:37;99292.03;;;11.71;95.81
59435;BME280;45241;49.768;8.636;2023-01-08T04:34:02;99291.38;;;11.76;93.46
59435;BME280;45241;49.768;8.636;2023-01-08T04:36:27;99289.81;;;11.68;91.09
59435;BME280;45241;49.768;8.636;2023-01-08T04:38:53;99286.44;;;11.55;93.74
59435;BME280;45241;49.768;8.636;2023-01-08T04:41:18;99289.97;;;11.49;92.35
59435;BME280;45241;49.768;8.636;2023-01-08T04:43:44;99278.59;;;11.53;91.53
59435;BME280;45241;49.768;8.636;2023-01-08T04:46:09;99287.75;;;11.64;91.93
59435;BME280;45241;49.768;8.636;2023-01-08T04:48:34;99291.16;;;11.28;95.25
59435;BME280;45241;49.768;8.636;2023-01-08T04:51:02;99282.59;;;11.44;95.22
59435;BME280;45241;49.768;8.636;2023-01-08T04:53:29;99291.47;;;11.44;97.38
59435;BME280;45241;49.768;8.636;2023-01-08T04:55:54;99282.16;;;11.47;98.68
59435;BME280;45241;49.768;8.636;2023-01-08T04:58:20;99283.78;;;11.48;99.42
59435;BME280;45241;49.768;8.636;2023-01-08T05:00:46;99286.91;;;11.45;100.00
59435;BME280;45241;49.768;8.636;2023-01-08T05:03:11;99278.75;;;11.58;99.87
59435;BME280;45241;49.768;8.636;2023-01-08T05:05:37;99286.25;;;11.50;100.00
59435;BME280;45241;49.768;8.636;2023-01-08T05:08:03;99268.91;;;11.52;100.00
59435;BME280;45241;49.768;8.636;2023-01-08T05:10:28;99286.84;;;11.27;100.00
59435;BME280;45241;49.768;8.636;2023-01-08T05:13:00;99277.69;;;11.41;100.00
59435;BME280;45241;49.768;8.636;2023-01-08T05:15:25;99291.75;;;11.30;100.00
59435;BME280;45241;49.768;8.636;2023-01-08T05:18:01;99291.88;;;11.17;100.00
59435;BME280;45241;49.768;8.636;2023-01-08T05:20:27;99288.84;;;11.06;100.00
59435;BME280;45241;49.768;8.636;2023-01-08T05:22:52;99280.09;;;11.18;100.00
59435;BME280;45241;49.768;8.636;2023-01-08T05:25:18;99289.28;;;11.35;100.00
59435;BME280;45241;49.768;8.636;2023-01-08T05:27:43;99276.44;;;11.37;100.00
59435;BME280;45241;49.768;8.636;2023-01-08T05:30:09;99284.41;;;11.19;100.00
59435;BME280;45241;49.768;8.636;2023-01-08T05:32:34;99286.88;;;11.20;100.00
59435;BME280;45241;49.768;8.636;2023-01-08T05:35:00;99278.16;;;11.25;100.00
59435;BME280;45241;49.768;8.636;2023-01-08T05:37:25;99292.81;;;11.29;100.00
59435;BME280;45241;49.768;8.636;2023-01-08T05:39:50;99292.63;;;11.24;100.00
59435;BME280;45241;49.768;8.636;2023-01-08T05:42:16;99283.81;;;11.17;100.00
59435;BME280;45241;49.768;8.636;2023-01-08T05:44:41;99292.63;;;11.24;100.00
59435;BME280;45241;49.768;8.636;2023-01-08T05:47:06;99285.50;;;11.11;100.00
59435;BME280;45241;49.768;8.636;2023-01-08T05:49:31;99286.44;;;11.23;100.00
59435;BME280;45241;49.768;8.636;2023-01-08T05:51:57;99275.59;;;11.11;100.00
59435;BME280;45241;49.768;8.636;2023-01-08T05:54:22;99275.00;;;11.09;100.00
59435;BME280;45241;49.768;8.636;2023-01-08T05:56:47;99272.59;;;11.01;100.00
59435;BME280;45241;49.768;8.636;2023-01-08T05:59:13;99278.16;;;11.25;100.00
59435;BME280;45241;49.768;8.636;2023-01-08T06:01:38;99276.91;;;11.02;100.00
59435;BME280;45241;49.768;8.636;2023-01-08T06:04:04;99271.06;;;10.80;100.00
59435;BME280;45241;49.768;8.636;2023-01-08T06:06:29;99271.47;;;10.84;100.00
59435;BME280;45241;49.768;8.636;2023-01-08T06:08:55;99279.63;;;10.96;100.00
59435;BME280;45241;49.768;8.636;2023-01-08T06:11:20;99275.44;;;10.75;100.00
59435;BME280;45241;49.768;8.636;2023-01-08T06:13:45;99274.34;;;10.82;100.00
59435;BME280;45241;49.768;8.636;2023-01-08T06:16:11;99269.56;;;10.91;100.00
59435;BME280;45241;49.768;8.636;2023-01-08T06:18:37;99268.31;;;10.94;100.00
59435;BME280;45241;49.768;8.636;2023-01-08T06:21:02;99271.53;;;10.71;100.00
59435;BME280;45241;49.768;8.636;2023-01-08T06:23:30;99253.47;;;10.60;100.00
59435;BME280;45241;49.768;8.636;2023-01-08T06:25:57;99254.31;;;10.85;100.00
59435;BME280;45241;49.768;8.636;2023-01-08T06:28:23;99256.06;;;11.04;100.00
59435;BME280;45241;49.768;8.636;2023-01-08T06:30:49;99259.34;;;11.06;100.00
59435;BME280;45241;49.768;8.636;2023-01-08T06:33:14;99256.78;;;11.18;100.00
59435;BME280;45241;49.768;8.636;2023-01-08T06:35:40;99262.91;;;11.00;100.00
59435;BME280;45241;49.768;8.636;2023-01-08T06:38:05;99265.41;;;10.95;100.00
59435;BME280;45241;49.768;8.636;2023-01-08T06:40:30;99265.03;;;11.17;100.00
59435;BME280;45241;49.768;8.636;2023-01-08T06:43:00;99265.13;;;11.35;100.00
59435;BME280;45241;49.768;8.636;2023-01-08T06:45:25;99271.22;;;11.17;100.00
59435;BME280;45241;49.768;8.636;2023-01-08T06:47:50;99273.53;;;11.38;100.00
59435;BME280;45241;49.768;8.636;2023-01-08T06:50:16;99277.31;;;11.31;100.00
59435;BME280;45241;49.768;8.636;2023-01-08T06:52:41;99268.59;;;11.10;100.00
59435;BME280;45241;49.768;8.636;2023-01-08T06:55:07;99263.13;;;11.24;100.00
59435;BME280;45241;49.768;8.636;2023-01-08T06:57:32;99276.69;;;11.04;100.00
59435;BME280;45241;49.768;8.636;2023-01-08T06:59:57;99282.44;;;11.07;100.00
59435;BME280;45241;49.768;8.636;2023-01-08T07:02:23;99282.75;;;10.93;100.00
59435;BME280;45241;49.768;8.636;2023-01-08T07:04:48;99293.25;;;10.94;100.00
59435;BME280;45241;49.768;8.636;2023-01-08T07:07:14;99286.38;;;11.05;100.00
59435;BME280;45241;49.768;8.636;2023-01-08T07:09:40;99295.03;;;10.75;100.00
59435;BME280;45241;49.768;8.636;2023-01-08T07:12:10;99303.31;;;10.74;100.00
59435;BME280;45241;49.768;8.636;2023-01-08T07:14:35;99294.75;;;10.90;100.00
59435;BME280;45241;49.768;8.636;2023-01-08T07:17:01;99288.63;;;11.08;100.00
59435;BME280;45241;49.768;8.636;2023-01-08T07:19:26;99287.91;;;10.94;100.00
59435;BME280;45241;49.768;8.636;2023-01-08T07:21:51;99294.44;;;11.05;100.00
59435;BME280;45241;49.768;8.636;2023-01-08T07:24:16;99293.03;;;10.96;100.00
59435;BME280;45241;49.768;8.636;2023-01-08T07:26:42;99294.59;;;11.10;100.00
59435;BME280;45241;49.768;8.636;2023-01-08T07:29:07;99303.84;;;10.82;100.00
59435;BME280;45241;49.768;8.636;2023-01-08T07:31:32;99293.69;;;10.91;100.00
59435;BME280;45241;49.768;8.636;2023-01-08T07:33:58;99297.03;;;10.87;100.00
59435;BME280;45241;49.768;8.636;2023-01-08T07:36:23;99293.31;;;11.12;100.00
59435;BME280;45241;49.768;8.636;2023-01-08T07:38:49;99296.00;;;10.88;100.00
59435;BME280;45241;49.768;8.636;2023-01-08T07:41:15;99292.44;;;10.94;100.00
59435;BME280;45241;49.768;8.636;2023-01-08T07:43:40;99295.25;;;10.74;100.00
59435;BME280;45241;49.768;8.636;2023-01-08T07:46:06;99289.88;;;11.05;100.00
59435;BME280;45241;49.768;8.636;2023-01-08T07:48:31;99294.66;;;11.03;100.00
59435;BME280;45241;49.768;8.636;2023-01-08T07:51:04;99303.59;;;10.91;100.00
59435;BME280;45241;49.768;8.636;2023-01-08T07:53:30;99295.47;;;11.04;100.00
59435;BME280;45241;49.768;8.636;2023-01-08T07:56:04;99307.41;;;10.76;100.00
59435;BME280;45241;49.768;8.636;2023-01-08T07:58:30;99297.44;;;10.83;100.00
59435;BME280;45241;49.768;8.636;2023-01-08T08:00:56;99276.00;;;10.83;100.00
59435;BME280;45241;49.768;8.636;2023-01-08T08:03:21;99308.16;;;10.90;100.00
59435;BME280;45241;49.768;8.636;2023-01-08T08:05:46;99301.75;;;10.91;100.00
59435;BME280;45241;49.768;8.636;2023-01-08T08:08:12;99301.81;;;10.78;100.00
59435;BME280;45241;49.768;8.636;2023-01-08T08:10:38;99307.06;;;10.60;100.00
59435;BME280;45241;49.768;8.636;2023-01-08T08:13:04;99300.63;;;10.74;100.00
59435;BME280;45241;49.768;8.636;2023-01-08T08:15:30;99306.59;;;10.69;100.00
59435;BME280;45241;49.768;8.636;2023-01-08T08:17:55;99295.25;;;10.74;100.00
59435;BME280;45241;49.768;8.636;2023-01-08T08:20:20;99293.56;;;10.79;100.00
59435;BME280;45241;49.768;8.636;2023-01-08T08:22:45;99292.13;;;10.77;100.00
59435;BME280;45241;49.768;8.636;2023-01-08T08:25:11;99288.06;;;10.68;100.00
59435;BME280;45241;49.768;8.636;2023-01-08T08:27:39;99285.22;;;10.63;100.00
59435;BME280;45241;49.768;8.636;2023-01-08T08:30:06;99292.56;;;10.74;100.00
59435;BME280;45241;49.768;8.636;2023-01-08T08:32:31;99289.69;;;10.69;100.00
59435;BME280;45241;49.768;8.636;2023-01-08T08:34:56;99291.31;;;10.76;100.00
59435;BME280;45241;49.768;8.636;2023-01-08T08:37:22;99285.75;;;10.78;100.00
59435;BME280;45241;49.768;8.636;2023-01-08T08:39:47;99283.88;;;10.78;100.00
59435;BME280;45241;49.768;8.636;2023-01-08T08:42:12;99283.00;;;10.84;100.00
59435;BME280;45241;49.768;8.636;2023-01-08T08:44:37;99292.56;;;10.74;100.00
59435;BME280;45241;49.768;8.636;2023-01-08T08:47:06;99285.59;;;10.66;100.00
59435;BME280;45241;49.768;8.636;2023-01-08T08:49:35;99278.44;;;10.92;100.00
59435;BME280;45241;49.768;8.636;2023-01-08T08:52:01;99283.31;;;10.70;100.00
59435;BME280;45241;49.768;8.636;2023-01-08T08:54:27;99289.06;;;10.29;100.00
59435;BME280;45241;49.768;8.636;2023-01-08T08:56:52;99294.75;;;10.45;100.00
59435;BME280;45241;49.768;8.636;2023-01-08T08:59:17;99283.22;;;10.83;100.00
59435;BME280;45241;49.768;8.636;2023-01-08T09:01:42;99284.41;;;10.55;100.00
59435;BME280;45241;49.768;8.636;2023-01-08T09:04:08;99298.78;;;10.68;100.00
59435;BME280;45241;49.768;8.636;2023-01-08T09:06:33;99288.81;;;10.81;100.00
59435;BME280;45241;49.768;8.636;2023-01-08T09:08:58;99280.09;;;10.54;100.00
59435;BME280;45241;49.768;8.636;2023-01-08T09:11:24;99283.28;;;10.76;100.00
59435;BME280;45241;49.768;8.636;2023-01-08T09:13:49;99280.53;;;10.83;100.00
59435;BME280;45241;49.768;8.636;2023-01-08T09:16:15;99284.47;;;10.80;100.00
59435;BME280;45241;49.768;8.636;2023-01-08T09:18:41;99280.31;;;10.53;100.00
59435;BME280;45241;49.768;8.636;2023-01-08T09:21:06;99285.44;;;10.61;100.00
59435;BME280;45241;49.768;8.636;2023-01-08T09:23:35;99276.56;;;10.61;100.00
59435;BME280;45241;49.768;8.636;2023-01-08T09:26:04;99279.03;;;10.94;100.00
59435;BME280;45241;49.768;8.636;2023-01-08T09:28:29;99285.84;;;10.58;100.00
59435;BME280;45241;49.768;8.636;2023-01-08T09:30:55;99285.34;;;10.74;100.00
59435;BME280;45241;49.768;8.636;2023-01-08T09:33:20;99291.25;;;10.90;100.00
59435;BME280;45241;49.768;8.636;2023-01-08T09:35:45;99295.44;;;10.72;100.00
59435;BME280;45241;49.768;8.636;2023-01-08T09:38:11;99291.09;;;10.78;100.00
59435;BME280;45241;49.768;8.636;2023-01-08T09:40:50;99289.69;;;10.75;100.00
59435;BME280;45241;49.768;8.636;2023-01-08T09:43:20;99288.59;;;10.83;100.00
59435;BME280;45241;49.768;8.636;2023-01-08T09:45:52;99304.56;;;11.03;100.00
59435;BME280;45241;49.768;8.636;2023-01-08T09:48:22;99280.00;;;10.99;100.00
59435;BME280;45241;49.768;8.636;2023-01-08T09:50:49;99281.38;;;11.15;100.00
59435;BME280;45241;49.768;8.636;2023-01-08T09:53:16;99280.13;;;11.11;100.00
59435;BME280;45241;49.768;8.636;2023-01-08T09:55:43;99278.81;;;10.95;100.00
59435;BME280;45241;49.768;8.636;2023-01-08T09:58:26;99284.56;;;10.99;100.00
59435;BME280;45241;49.768;8.636;2023-01-08T10:00:54;99274.66;;;10.99;100.00
59435;BME280;45241;49.768;8.636;2023-01-08T10:03:24;99267.38;;;11.06;100.00
59435;BME280;45241;49.768;8.636;2023-01-08T10:05:53;99265.53;;;11.07;100.00
59435;BME280;45241;49.768;8.636;2023-01-08T10:08:18;99262.75;;;11.20;100.00
59435;BME280;45241;49.768;8.636;2023-01-08T10:10:43;99266.50;;;11.12;100.00
59435;BME280;45241;49.768;8.636;2023-01-08T10:13:11;99262.19;;;11.11;100.00
59435;BME280;45241;49.768;8.636;2023-01-08T10:15:38;99260.75;;;11.09;100.00
59435;BME280;45241;49.768;8.636;2023-01-08T10:18:08;99266.25;;;11.21;100.00
59435;BME280;45241;49.768;8.636;2023-01-08T10:20:34;99264.94;;;11.05;100.00
59435;BME280;45241;49.768;8.636;2023-01-08T10:23:12;99271.59;;;11.21;100.00
59435;BME280;45241;49.768;8.636;2023-01-08T10:25:57;99265.69;;;11.12;100.00
59435;BME280;45241;49.768;8.636;2023-01-08T10:30:53;99269.81;;;11.14;100.00
59435;BME280;45241;49.768;8.636;2023-01-08T10:33:30;99272.81;;;11.00;100.00
59435;BME280;45241;49.768;8.636;2023-01-08T10:36:03;99268.97;;;10.89;100.00
59435;BME280;45241;49.768;8.636;2023-01-08T10:38:48;99261.66;;;11.28;100.00
59435;BME280;45241;49.768;8.636;2023-01-08T10:41:15;99251.19;;;11.20;100.00
59435;BME280;45241;49.768;8.636;2023-01-08T10:44:14;99241.59;;;11.30;100.00
59435;BME280;45241;49.768;8.636;2023-01-08T10:46:42;99242.25;;;11.32;100.00
59435;BME280;45241;49.768;8.636;2023-01-08T10:49:31;99244.19;;;11.19;100.00
59435;BME280;45241;49.768;8.636;2023-01-08T10:51:57;99242.91;;;11.21;100.00
59435;BME280;45241;49.768;8.636;2023-01-08T10:54:37;99242.09;;;11.21;100.00
59435;BME280;45241;49.768;8.636;2023-01-08T10:57:19;99240.94;;;11.10;100.00
59435;BME280;45241;49.768;8.636;2023-01-08T10:59:45;99230.31;;;11.22;100.00
59435;BME280;45241;49.768;8.636;2023-01-08T11:02:34;99231.47;;;11.57;100.00
59435;BME280;45241;49.768;8.636;2023-01-08T11:05:01;99215.75;;;11.61;100.00
59435;BME280;45241;49.768;8.636;2023-01-08T11:07:28;99224.41;;;11.38;100.00
59435;BME280;45241;49.768;8.636;2023-01-08T11:09:54;99201.78;;;11.89;100.00
59435;BME280;45241;49.768;8.636;2023-01-08T11:14:56;99200.16;;;12.06;98.03
59435;BME280;45241;49.768;8.636;2023-01-08T11:17:24;99190.97;;;11.95;99.08
59435;BME280;45241;49.768;8.636;2023-01-08T11:19:50;99188.34;;;12.07;99.09
59435;BME280;45241;49.768;8.636;2023-01-08T11:22:21;99188.88;;;11.97;99.29
59435;BME280;45241;49.768;8.636;2023-01-08T11:24:48;99181.47;;;12.11;96.54
59435;BME280;45241;49.768;8.636;2023-01-08T11:27:33;99181.94;;;12.08;95.15
59435;BME280;45241;49.768;8.636;2023-01-08T11:30:17;99182.00;;;12.01;94.42
59435;BME280;45241;49.768;8.636;2023-01-08T11:35:20;99176.63;;;12.01;93.50
59435;BME280;45241;49.768;8.636;2023-01-08T11:37:51;99158.53;;;11.97;94.88
59435;BME280;45241;49.768;8.636;2023-01-08T11:40:27;99147.44;;;11.93;92.33
59435;BME280;45241;49.768;8.636;2023-01-08T11:43:17;99125.28;;;12.10;91.74
59435;BME280;45241;49.768;8.636;2023-01-08T11:51:06;99114.34;;;12.23;92.60
59435;BME280;45241;49.768;8.636;2023-01-08T11:53:42;99125.47;;;12.26;91.04
59435;BME280;45241;49.768;8.636;2023-01-08T11:56:37;99112.81;;;12.15;93.01
59435;BME280;45241;49.768;8.636;2023-01-08T12:07:18;99110.66;;;11.94;95.03
59435;BME280;45241;49.768;8.636;2023-01-08T12:10:00;99113.31;;;11.94;96.33
59435;BME280;45241;49.768;8.636;2023-01-08T12:15:38;99097.44;;;11.92;98.31
59435;BME280;45241;49.768;8.636;2023-01-08T12:24:07;99086.41;;;12.12;97.90
59435;BME280;45241;49.768;8.636;2023-01-08T12:30:08;99079.59;;;11.98;97.62
59435;BME280;45241;49.768;8.636;2023-01-08T12:32:42;99075.81;;;11.87;100.00
59435;BME280;45241;49.768;8.636;2023-01-08T12:38:00;99064.59;;;12.20;94.00
59435;BME280;45241;49.768;8.636;2023-01-08T12:40:33;99078.50;;;12.29;94.86
59435;BME280;45241;49.768;8.636;2023-01-08T12:43:05;99073.47;;;12.21;94.75
59435;BME280;45241;49.768;8.636;2023-01-08T12:45:37;99058.63;;;12.18;94.72
59435;BME280;45241;49.768;8.636;2023-01-08T12:48:11;99063.44;;;12.28;95.23
59435;BME280;45241;49.768;8.636;2023-01-08T12:50:53;99066.47;;;12.20;95.33
59435;BME280;45241;49.768;8.636;2023-01-08T12:56:07;99069.50;;;11.82;96.04
59435;BME280;45241;49.768;8.636;2023-01-08T12:59:03;99059.81;;;12.22;93.89
59435;BME280;45241;49.768;8.636;2023-01-08T13:01:34;99056.28;;;12.10;95.88
59435;BME280;45241;49.768;8.636;2023-01-08T13:04:02;99057.09;;;12.11;93.72
59435;BME280;45241;49.768;8.636;2023-01-08T13:06:29;99052.81;;;12.33;91.55
59435;BME280;45241;49.768;8.636;2023-01-08T13:08:56;99055.00;;;12.24;91.71
59435;BME280;45241;49.768;8.636;2023-01-08T13:11:28;99051.44;;;12.30;90.95
59435;BME280;45241;49.768;8.636;2023-01-08T13:14:20;99054.31;;;12.29;92.27
59435;BME280;45241;49.768;8.636;2023-01-08T13:17:02;99050.44;;;12.13;90.34
59435;BME280;45241;49.768;8.636;2023-01-08T13:19:33;99045.31;;;12.23;90.95
59435;BME280;45241;49.768;8.636;2023-01-08T13:22:01;99043.56;;;12.29;89.87
59435;BME280;45241;49.768;8.636;2023-01-08T13:24:35;99052.22;;;12.19;91.36
59435;BME280;45241;49.768;8.636;2023-01-08T13:27:27;99040.28;;;12.15;93.39
59435;BME280;45241;49.768;8.636;2023-01-08T13:29:53;99051.47;;;12.12;94.28
59435;BME280;45241;49.768;8.636;2023-01-08T13:32:41;99036.22;;;12.24;92.51
59435;BME280;45241;49.768;8.636;2023-01-08T13:35:19;99028.69;;;12.03;95.64
59435;BME280;45241;49.768;8.636;2023-01-08T13:37:48;99028.69;;;12.03;95.12
59435;BME280;45241;49.768;8.636;2023-01-08T13:43:34;99010.59;;;12.10;93.78
59435;BME280;45241;49.768;8.636;2023-01-08T13:48:32;98998.25;;;12.21;93.54
59435;BME280;45241;49.768;8.636;2023-01-08T13:50:59;98997.44;;;12.32;93.78
59435;BME280;45241;49.768;8.636;2023-01-08T13:53:24;98999.75;;;12.40;93.42
59435;BME280;45241;49.768;8.636;2023-01-08T13:56:07;99006.75;;;12.29;93.46